Time;durP1;ratioP1;P1;durP2;ratioP2;P2;SDS_P1;SDS_P2;PMS_P1;PMS_P2;Temp;Humidity;BMP_temperature;BMP_pressure;BME280_temperature;BME280_humidity;BME280_pressure;Samples;Min_cycle;Max_cycle;Signal;HPM_P1;HPM_P2
2023/10/14 00:00:33;;;;;;;6.27;3.27;;;18.60;2.50;;;;;;5035271;28;20462;-66
2023/10/14 00:03:17;;;;;;;6.90;3.60;;;18.70;2.50;;;;;;5044623;28;20460;-67
2023/10/14 00:05:43;;;;;;;7.77;4.10;;;18.70;2.60;;;;;;5039451;28;20518;-66
2023/10/14 00:08:12;;;;;;;9.27;4.43;;;18.70;2.50;;;;;;5041134;28;20468;-66
2023/10/14 00:10:40;;;;;;;10.33;4.80;;;18.60;2.50;;;;;;5040142;28;20542;-66
2023/10/14 00:13:10;;;;;;;10.70;4.00;;;18.60;2.40;;;;;;5041478;28;20486;-66
2023/10/14 00:15:39;;;;;;;11.10;4.13;;;18.60;2.50;;;;;;5036071;28;20486;-66
2023/10/14 00:18:06;;;;;;;8.40;3.93;;;18.70;2.50;;;;;;5040704;28;20546;-66
2023/10/14 00:20:35;;;;;;;11.50;4.13;;;18.70;2.80;;;;;;5039651;28;20491;-66
2023/10/14 00:23:02;;;;;;;6.60;4.10;;;18.60;2.90;;;;;;5040351;28;20464;-66
2023/10/14 00:25:32;;;;;;;7.90;3.93;;;18.60;2.80;;;;;;5041209;28;20481;-66
2023/10/14 00:28:02;;;;;;;7.10;3.80;;;18.60;3.10;;;;;;5044655;28;20461;-66
2023/10/14 00:30:31;;;;;;;9.07;4.30;;;18.60;3.90;;;;;;5041252;28;20488;-66
2023/10/14 00:32:58;;;;;;;7.70;4.33;;;18.60;4.20;;;;;;5045952;28;20481;-66
2023/10/14 00:35:26;;;;;;;7.13;3.80;;;18.50;4.40;;;;;;5041716;28;20486;-66
2023/10/14 00:37:53;;;;;;;7.53;3.80;;;18.50;4.50;;;;;;5048852;28;20516;-66
2023/10/14 00:40:22;;;;;;;8.37;4.20;;;18.50;4.20;;;;;;5040515;28;20946;-66
2023/10/14 00:42:50;;;;;;;7.10;4.03;;;18.50;4.20;;;;;;5047468;28;20511;-66
2023/10/14 00:45:20;;;;;;;7.50;4.37;;;18.50;3.90;;;;;;5044698;28;20500;-67
2023/10/14 00:47:49;;;;;;;8.00;4.90;;;18.50;3.80;;;;;;5038796;28;20462;-66
2023/10/14 00:53:04;;;;;;;8.33;3.93;;;18.50;4.00;;;;;;5046099;28;20471;-66
2023/10/14 00:55:38;;;;;;;8.90;4.57;;;18.40;4.00;;;;;;5041666;28;20518;-66
2023/10/14 00:58:08;;;;;;;8.80;4.23;;;18.40;4.00;;;;;;5043158;28;20496;-66
2023/10/14 01:00:37;;;;;;;7.20;4.10;;;18.40;4.00;;;;;;5040367;28;20470;-66
2023/10/14 01:03:09;;;;;;;9.33;4.33;;;18.50;4.10;;;;;;5041776;28;20565;-66
2023/10/14 01:05:36;;;;;;;8.77;4.40;;;18.40;4.20;;;;;;5041732;28;20487;-66
2023/10/14 01:08:08;;;;;;;9.03;3.67;;;18.50;4.40;;;;;;5043694;28;20462;-68
2023/10/14 01:10:35;;;;;;;7.17;4.33;;;18.50;4.20;;;;;;5042905;28;20459;-66
2023/10/14 01:13:07;;;;;;;7.50;4.33;;;18.50;4.70;;;;;;5046909;28;20960;-66
2023/10/14 01:15:41;;;;;;;9.27;4.13;;;18.50;4.40;;;;;;5037657;28;20613;-67
2023/10/14 01:18:11;;;;;;;7.07;4.57;;;18.50;4.60;;;;;;5044349;28;20544;-68
2023/10/14 01:20:38;;;;;;;7.97;4.07;;;18.60;4.70;;;;;;5047306;28;20462;-66
2023/10/14 01:23:14;;;;;;;9.63;4.67;;;18.60;4.90;;;;;;5045933;28;20469;-68
2023/10/14 01:25:47;;;;;;;9.70;4.10;;;18.60;4.90;;;;;;5043693;28;20490;-68
2023/10/14 01:28:15;;;;;;;8.33;3.80;;;18.70;5.00;;;;;;5043852;28;20604;-68
2023/10/14 01:31:03;;;;;;;10.33;5.13;;;18.70;5.10;;;;;;5044094;28;20466;-66
2023/10/14 01:33:35;;;;;;;7.73;4.40;;;18.70;5.30;;;;;;5041465;28;21017;-66
2023/10/14 01:36:02;;;;;;;13.17;4.50;;;18.70;5.40;;;;;;5038549;28;20470;-66
2023/10/14 01:38:31;;;;;;;6.73;3.90;;;18.70;5.50;;;;;;5045694;28;20477;-66
2023/10/14 01:40:58;;;;;;;8.50;4.37;;;18.70;5.60;;;;;;5042565;28;20466;-66
2023/10/14 01:43:31;;;;;;;8.27;4.60;;;18.70;5.60;;;;;;5046361;28;20996;-67
2023/10/14 01:46:01;;;;;;;7.97;4.53;;;18.70;5.50;;;;;;5039966;28;20482;-67
2023/10/14 01:48:31;;;;;;;10.40;5.40;;;18.70;5.40;;;;;;5044160;28;20973;-67
2023/10/14 01:50:59;;;;;;;7.83;4.90;;;18.70;5.40;;;;;;5043640;28;20463;-67
2023/10/14 01:53:27;;;;;;;8.50;4.53;;;18.70;5.20;;;;;;5043134;28;20477;-67
2023/10/14 01:55:57;;;;;;;9.97;5.20;;;18.80;5.40;;;;;;5045046;28;20559;-66
2023/10/14 01:58:30;;;;;;;8.30;4.37;;;18.80;5.60;;;;;;5043683;28;20581;-67
2023/10/14 02:01:04;;;;;;;10.27;4.83;;;18.90;5.90;;;;;;5040597;28;20994;-66
2023/10/14 02:03:33;;;;;;;10.10;4.80;;;18.90;6.20;;;;;;5044158;28;20509;-67
2023/10/14 02:06:03;;;;;;;11.27;5.47;;;19.00;6.30;;;;;;5040398;28;20498;-66
2023/10/14 02:08:30;;;;;;;9.87;4.57;;;19.00;6.40;;;;;;5041295;28;20466;-66
2023/10/14 02:10:58;;;;;;;16.70;5.27;;;19.10;6.40;;;;;;5047873;28;20464;-66
2023/10/14 02:13:25;;;;;;;10.90;4.50;;;19.10;6.50;;;;;;5038697;28;20577;-66
2023/10/14 02:15:52;;;;;;;15.23;5.00;;;19.10;6.60;;;;;;5043741;28;20481;-66
2023/10/14 02:18:21;;;;;;;9.47;4.33;;;19.20;6.50;;;;;;5047949;28;20508;-66
2023/10/14 02:20:57;;;;;;;10.03;5.90;;;19.20;6.50;;;;;;5044538;28;20527;-66
2023/10/14 02:23:29;;;;;;;11.60;4.90;;;19.20;6.40;;;;;;5044315;28;20458;-66
2023/10/14 02:26:00;;;;;;;8.20;4.53;;;19.30;6.40;;;;;;5042929;28;20505;-66
2023/10/14 02:28:39;;;;;;;7.03;4.60;;;19.30;6.30;;;;;;5043515;28;20462;-66
2023/10/14 02:31:16;;;;;;;8.47;5.10;;;19.30;6.20;;;;;;5040078;28;20597;-66
2023/10/14 02:33:45;;;;;;;8.73;4.73;;;19.30;6.30;;;;;;5044178;28;20961;-66
2023/10/14 02:36:14;;;;;;;10.40;5.00;;;19.30;6.40;;;;;;5041034;28;20474;-66
2023/10/14 02:38:41;;;;;;;9.80;4.93;;;19.30;6.40;;;;;;5042129;28;20493;-66
2023/10/14 02:41:07;;;;;;;8.00;4.90;;;19.40;6.50;;;;;;5040935;28;20969;-66
2023/10/14 02:43:37;;;;;;;8.20;4.63;;;19.40;6.30;;;;;;5045589;28;20470;-67
2023/10/14 02:46:10;;;;;;;8.70;4.73;;;19.40;6.50;;;;;;5044179;28;20490;-67
2023/10/14 02:48:52;;;;;;;9.53;5.30;;;19.40;6.40;;;;;;5041526;28;20458;-67
2023/10/14 02:51:29;;;;;;;10.23;5.20;;;19.40;6.40;;;;;;5041680;28;21653;-67
2023/10/14 02:54:03;;;;;;;9.27;5.00;;;19.40;6.60;;;;;;5043641;28;20891;-66
2023/10/14 02:56:41;;;;;;;11.53;5.00;;;19.40;6.70;;;;;;5040389;28;20529;-66
2023/10/14 02:59:16;;;;;;;11.97;5.53;;;19.40;6.90;;;;;;5043999;28;20476;-66
2023/10/14 03:01:50;;;;;;;9.43;5.53;;;19.40;7.10;;;;;;5042441;28;20556;-66
2023/10/14 03:04:24;;;;;;;12.00;5.80;;;19.40;7.40;;;;;;5039142;28;20572;-66
2023/10/14 03:06:53;;;;;;;8.80;5.87;;;19.40;7.40;;;;;;5040746;28;21028;-66
2023/10/14 03:09:32;;;;;;;11.87;5.47;;;19.40;7.70;;;;;;5044144;28;20930;-66
2023/10/14 03:12:00;;;;;;;15.47;5.80;;;19.40;7.90;;;;;;5038909;28;20705;-66
2023/10/14 03:14:29;;;;;;;9.07;4.90;;;19.40;8.50;;;;;;5041650;28;20489;-66
2023/10/14 03:16:55;;;;;;;11.20;5.20;;;19.40;8.00;;;;;;5039919;28;20462;-66
2023/10/14 03:19:25;;;;;;;11.53;5.60;;;19.40;7.90;;;;;;5042176;28;20471;-66
2023/10/14 03:21:58;;;;;;;9.43;5.40;;;19.40;7.80;;;;;;5042372;28;20778;-66
2023/10/14 03:24:27;;;;;;;11.13;5.00;;;19.40;7.80;;;;;;5041469;28;20485;-68
2023/10/14 03:27:01;;;;;;;9.23;5.40;;;19.40;7.80;;;;;;5035087;28;20549;-67
2023/10/14 03:29:30;;;;;;;11.20;5.40;;;19.40;7.70;;;;;;5042311;28;20842;-67
2023/10/14 03:31:56;;;;;;;9.30;5.07;;;19.40;7.70;;;;;;5036800;28;20478;-67
2023/10/14 03:34:29;;;;;;;8.27;4.93;;;19.40;7.70;;;;;;5040919;28;20563;-67
2023/10/14 03:37:00;;;;;;;7.47;4.77;;;19.40;7.60;;;;;;5039614;28;20463;-67
2023/10/14 03:39:38;;;;;;;7.23;4.50;;;19.40;7.80;;;;;;5043836;28;20918;-67
2023/10/14 03:42:11;;;;;;;11.07;4.50;;;19.50;8.00;;;;;;5044673;28;20462;-66
2023/10/14 03:44:41;;;;;;;8.60;4.57;;;19.50;8.30;;;;;;5041698;28;20482;-66
2023/10/14 03:47:14;;;;;;;9.83;5.10;;;19.50;8.20;;;;;;5039158;28;20461;-66
2023/10/14 03:49:42;;;;;;;8.33;4.60;;;19.40;8.20;;;;;;5044974;28;20466;-66
2023/10/14 03:52:12;;;;;;;8.20;5.07;;;19.40;8.60;;;;;;5042932;28;21007;-66
2023/10/14 03:54:42;;;;;;;12.87;4.87;;;19.50;8.60;;;;;;5041693;28;20489;-66
2023/10/14 03:57:14;;;;;;;10.07;5.10;;;19.50;8.60;;;;;;5043392;28;20463;-66
2023/10/14 03:59:46;;;;;;;7.83;4.50;;;19.50;8.70;;;;;;5043336;28;20500;-66
2023/10/14 04:02:18;;;;;;;9.10;4.77;;;19.40;8.60;;;;;;5042951;28;20474;-66
2023/10/14 04:04:45;;;;;;;13.53;5.13;;;19.50;8.60;;;;;;5043258;28;20848;-67
2023/10/14 04:07:15;;;;;;;7.00;4.50;;;19.50;8.80;;;;;;5040027;28;20536;-66
2023/10/14 04:09:44;;;;;;;8.13;4.13;;;19.40;8.60;;;;;;5047629;28;20457;-66
2023/10/14 04:12:21;;;;;;;9.67;4.50;;;19.50;8.60;;;;;;5048038;28;20567;-66
2023/10/14 04:14:54;;;;;;;7.60;4.30;;;19.50;8.60;;;;;;5039551;28;20481;-66
2023/10/14 04:17:22;;;;;;;8.53;4.70;;;19.50;8.80;;;;;;5040619;28;20485;-66
2023/10/14 04:19:53;;;;;;;8.70;4.90;;;19.50;9.20;;;;;;5048609;28;20520;-66
2023/10/14 04:22:31;;;;;;;10.37;5.20;;;19.50;9.30;;;;;;5042946;28;20481;-67
2023/10/14 04:25:16;;;;;;;9.30;5.00;;;19.60;9.70;;;;;;5042970;28;20855;-67
2023/10/14 04:27:58;;;;;;;10.30;4.97;;;19.60;10.00;;;;;;5038592;28;20549;-67
2023/10/14 04:30:32;;;;;;;8.17;4.77;;;19.60;10.10;;;;;;5041414;28;20469;-64
2023/10/14 04:33:16;;;;;;;11.30;6.00;;;19.60;10.30;;;;;;5043096;28;20461;-63
2023/10/14 04:35:57;;;;;;;10.37;5.70;;;19.60;10.50;;;;;;5042917;28;20485;-64
2023/10/14 04:38:28;;;;;;;16.30;5.50;;;19.60;10.70;;;;;;5047535;28;20454;-64
2023/10/14 04:40:58;;;;;;;9.13;5.40;;;19.60;10.50;;;;;;5040627;28;20462;-64
2023/10/14 04:43:50;;;;;;;12.00;5.80;;;19.60;10.60;;;;;;5047067;28;20466;-64
2023/10/14 04:46:26;;;;;;;9.17;5.40;;;19.60;10.80;;;;;;5047608;28;20909;-64
2023/10/14 04:49:06;;;;;;;7.67;5.27;;;19.60;11.00;;;;;;5041234;28;20513;-63
2023/10/14 04:51:38;;;;;;;9.23;5.23;;;19.60;11.10;;;;;;5043396;28;20469;-63
2023/10/14 04:54:09;;;;;;;9.90;5.30;;;19.60;11.50;;;;;;5042413;28;20485;-64
2023/10/14 04:56:36;;;;;;;7.57;4.63;;;19.60;11.60;;;;;;5041678;28;20519;-64
2023/10/14 04:59:05;;;;;;;9.60;5.60;;;19.60;11.80;;;;;;5045295;28;20455;-64
2023/10/14 05:01:33;;;;;;;7.83;5.43;;;19.60;12.10;;;;;;5046202;28;20561;-64
2023/10/14 05:04:00;;;;;;;8.40;5.20;;;19.60;12.30;;;;;;5043961;28;20844;-64
2023/10/14 05:06:29;;;;;;;8.40;5.20;;;19.60;12.40;;;;;;5042245;28;20465;-64
2023/10/14 05:08:56;;;;;;;8.23;5.23;;;19.60;12.50;;;;;;5043398;28;20462;-64
2023/10/14 05:11:26;;;;;;;7.30;4.73;;;19.60;12.70;;;;;;5043492;28;20458;-64
2023/10/14 05:14:07;;;;;;;9.70;6.47;;;19.60;12.90;;;;;;5046225;28;20462;-64
2023/10/14 05:16:51;;;;;;;9.53;5.93;;;19.60;13.10;;;;;;5045117;28;20994;-63
2023/10/14 05:19:23;;;;;;;8.60;5.70;;;19.60;13.20;;;;;;5043772;28;20973;-63
2023/10/14 05:21:56;;;;;;;8.40;5.13;;;19.60;13.20;;;;;;5047241;28;20990;-64
2023/10/14 05:24:28;;;;;;;8.10;5.40;;;19.60;13.60;;;;;;5047692;28;21002;-64
2023/10/14 05:26:59;;;;;;;10.30;5.83;;;19.60;14.30;;;;;;5046809;28;20951;-64
2023/10/14 05:29:27;;;;;;;13.80;5.67;;;19.60;14.20;;;;;;5042822;28;20719;-64
2023/10/14 05:32:04;;;;;;;12.40;6.07;;;19.60;14.60;;;;;;5041734;28;20474;-64
2023/10/14 05:34:32;;;;;;;15.80;6.17;;;19.50;15.20;;;;;;5041130;28;20491;-64
2023/10/14 05:36:59;;;;;;;10.03;5.43;;;19.50;15.50;;;;;;5046442;28;23646;-63
2023/10/14 05:39:27;;;;;;;11.37;6.20;;;19.50;16.00;;;;;;5041085;28;20476;-63
2023/10/14 05:41:58;;;;;;;11.93;6.10;;;19.40;16.40;;;;;;5043025;28;20458;-63
2023/10/14 05:44:27;;;;;;;11.80;5.90;;;19.40;16.50;;;;;;5044389;28;20531;-63
2023/10/14 05:46:55;;;;;;;10.57;6.17;;;19.40;16.70;;;;;;5046626;28;20473;-63
2023/10/14 05:49:24;;;;;;;10.93;5.47;;;19.40;17.00;;;;;;5044652;28;20502;-63
2023/10/14 05:51:51;;;;;;;13.60;6.00;;;19.40;17.00;;;;;;5045047;28;20552;-63
2023/10/14 05:54:18;;;;;;;6.97;4.90;;;19.30;17.30;;;;;;5040466;28;20486;-63
2023/10/14 05:56:45;;;;;;;7.70;4.77;;;19.30;18.00;;;;;;5042616;28;22994;-63
2023/10/14 05:59:11;;;;;;;11.33;6.17;;;19.30;17.60;;;;;;5043141;28;20496;-63
2023/10/14 06:01:39;;;;;;;10.80;5.47;;;19.30;17.90;;;;;;5041490;28;20556;-63
2023/10/14 06:04:14;;;;;;;9.20;6.07;;;19.30;18.10;;;;;;5040530;28;20588;-63
2023/10/14 06:06:41;;;;;;;10.03;5.53;;;19.30;18.20;;;;;;5045378;28;20870;-63
2023/10/14 06:09:09;;;;;;;9.90;5.43;;;19.30;18.20;;;;;;5040935;28;20546;-64
2023/10/14 06:11:36;;;;;;;8.23;5.10;;;19.20;18.30;;;;;;5042167;28;20462;-63
2023/10/14 06:14:03;;;;;;;8.40;5.23;;;19.30;18.30;;;;;;5043797;28;20578;-63
2023/10/14 06:16:31;;;;;;;10.37;6.07;;;19.20;18.40;;;;;;5040828;28;20514;-64
2023/10/14 06:18:59;;;;;;;9.13;5.70;;;19.20;18.40;;;;;;5043959;28;20466;-64
2023/10/14 06:21:28;;;;;;;9.20;5.60;;;19.20;18.40;;;;;;5044328;28;20458;-64
2023/10/14 06:23:54;;;;;;;11.70;6.97;;;19.20;18.50;;;;;;5044386;28;20563;-64
2023/10/14 06:26:21;;;;;;;10.60;6.00;;;19.20;18.40;;;;;;5046055;28;20462;-65
2023/10/14 06:28:49;;;;;;;10.83;5.63;;;19.20;18.40;;;;;;5043834;28;20469;-65
2023/10/14 06:31:18;;;;;;;12.37;5.40;;;19.20;18.40;;;;;;5045127;28;20472;-64
2023/10/14 06:33:45;;;;;;;9.00;5.57;;;19.20;18.40;;;;;;5041180;28;20470;-64
2023/10/14 06:36:14;;;;;;;12.33;6.17;;;19.20;18.30;;;;;;5039943;28;20482;-65
2023/10/14 06:38:44;;;;;;;9.10;5.63;;;19.20;18.50;;;;;;5040912;28;20458;-65
2023/10/14 06:41:11;;;;;;;9.37;5.27;;;19.20;18.80;;;;;;5040521;28;20466;-64
2023/10/14 06:43:39;;;;;;;12.37;6.10;;;19.20;18.40;;;;;;5038829;28;20499;-64
2023/10/14 06:46:06;;;;;;;13.87;5.40;;;19.20;18.30;;;;;;5044039;28;20462;-64
2023/10/14 06:48:32;;;;;;;12.30;5.40;;;19.30;18.30;;;;;;5038463;28;20466;-64
2023/10/14 06:51:01;;;;;;;8.00;5.60;;;19.30;18.00;;;;;;5042546;28;20535;-64
2023/10/14 06:53:28;;;;;;;10.23;5.17;;;19.30;17.90;;;;;;5038722;28;20848;-64
2023/10/14 06:55:56;;;;;;;9.87;5.13;;;19.30;17.60;;;;;;5042353;28;20522;-64
2023/10/14 06:58:23;;;;;;;9.07;5.10;;;19.30;17.60;;;;;;5044193;28;20831;-65
2023/10/14 07:00:50;;;;;;;10.03;5.83;;;19.30;17.60;;;;;;5045529;28;20916;-65
2023/10/14 07:03:17;;;;;;;7.50;4.40;;;19.30;17.70;;;;;;5045408;28;20462;-65
2023/10/14 07:05:48;;;;;;;9.60;5.00;;;19.30;17.70;;;;;;5040022;28;21033;-65
2023/10/14 07:08:17;;;;;;;9.00;4.70;;;19.40;17.60;;;;;;5040624;28;20471;-65
2023/10/14 07:10:47;;;;;;;7.90;4.40;;;19.40;17.50;;;;;;5038543;28;20462;-65
2023/10/14 07:13:17;;;;;;;8.17;4.77;;;19.40;17.20;;;;;;5041794;28;21037;-65
2023/10/14 07:15:44;;;;;;;8.57;4.57;;;19.40;17.20;;;;;;5038273;28;20486;-65
2023/10/14 07:18:13;;;;;;;8.00;4.57;;;19.40;17.10;;;;;;5040714;28;20904;-65
2023/10/14 07:20:41;;;;;;;8.57;4.50;;;19.50;17.10;;;;;;5029610;28;20482;-65
2023/10/14 07:23:08;;;;;;;7.60;4.50;;;19.50;16.90;;;;;;5043068;28;20550;-65
2023/10/14 07:25:37;;;;;;;8.47;4.93;;;19.60;16.70;;;;;;5043533;28;20489;-65
2023/10/14 07:28:08;;;;;;;8.53;4.37;;;19.70;16.80;;;;;;5042784;28;21064;-65
2023/10/14 07:30:36;;;;;;;7.53;3.93;;;19.70;16.40;;;;;;5039385;28;20529;-65
2023/10/14 07:33:05;;;;;;;9.53;4.83;;;19.90;16.10;;;;;;5040831;28;20466;-65
2023/10/14 07:35:32;;;;;;;11.50;5.30;;;19.90;15.90;;;;;;5038546;28;20516;-65
2023/10/14 07:37:59;;;;;;;10.17;4.60;;;20.10;15.60;;;;;;5045352;28;20513;-65
2023/10/14 07:40:29;;;;;;;8.53;4.83;;;20.40;15.20;;;;;;5046474;28;20547;-65
2023/10/14 07:42:59;;;;;;;10.67;4.40;;;21.20;13.80;;;;;;5043122;28;21071;-65
2023/10/14 07:45:29;;;;;;;7.63;4.67;;;21.60;12.00;;;;;;5045356;28;20601;-65
2023/10/14 07:47:57;;;;;;;9.43;4.90;;;21.80;11.30;;;;;;5047908;28;20463;-65
2023/10/14 07:50:24;;;;;;;8.37;4.90;;;21.90;10.60;;;;;;5045182;28;20983;-65
2023/10/14 07:52:54;;;;;;;8.33;4.80;;;21.90;10.30;;;;;;5042219;28;20478;-66
2023/10/14 07:55:25;;;;;;;8.07;4.87;;;21.80;10.30;;;;;;5048514;28;20497;-65
2023/10/14 07:57:52;;;;;;;7.93;4.70;;;21.90;10.30;;;;;;5046080;28;20458;-65
2023/10/14 08:00:19;;;;;;;12.50;5.63;;;21.90;10.30;;;;;;5046967;28;20450;-64
2023/10/14 08:02:51;;;;;;;8.03;4.83;;;22.00;10.00;;;;;;5048497;28;20512;-65
2023/10/14 08:05:19;;;;;;;11.93;5.80;;;22.30;9.80;;;;;;5046805;28;20485;-65
2023/10/14 08:07:47;;;;;;;8.20;5.10;;;23.20;8.80;;;;;;5050596;28;20965;-65
2023/10/14 08:10:21;;;;;;;10.20;5.40;;;24.20;5.60;;;;;;5040503;28;20832;-65
2023/10/14 08:12:53;;;;;;;8.13;5.17;;;24.60;4.40;;;;;;5045031;28;20557;-65
2023/10/14 08:15:20;;;;;;;6.80;4.40;;;25.50;2.90;;;;;;5048245;28;20490;-65
2023/10/14 08:17:48;;;;;;;15.30;4.73;;;27.50;1.00;;;;;;5051300;28;20461;-65
2023/10/14 08:20:18;;;;;;;9.93;5.10;;;29.20;1.00;;;;;;5042984;28;20925;-65
2023/10/14 08:22:48;;;;;;;8.40;4.60;;;31.70;1.00;;;;;;5047624;28;20508;-65
2023/10/14 08:25:18;;;;;;;11.27;4.60;;;32.10;1.00;;;;;;5044319;28;20511;-65
2023/10/14 08:27:46;;;;;;;9.90;4.43;;;31.20;1.00;;;;;;5049565;28;20469;-65
2023/10/14 08:30:13;;;;;;;11.27;5.13;;;30.00;1.00;;;;;;5047316;28;20459;-65
2023/10/14 08:32:40;;;;;;;7.80;4.67;;;29.10;1.00;;;;;;5048131;28;20484;-65
2023/10/14 08:35:15;;;;;;;8.27;4.10;;;28.30;1.00;;;;;;5043537;28;20500;-66
2023/10/14 08:37:46;;;;;;;8.97;4.20;;;28.10;1.00;;;;;;5046561;28;20539;-65
2023/10/14 08:40:19;;;;;;;8.70;4.70;;;30.60;1.00;;;;;;5048994;28;20496;-65
2023/10/14 08:42:51;;;;;;;7.23;3.80;;;32.60;1.00;;;;;;5047887;28;20461;-64
2023/10/14 08:45:21;;;;;;;6.93;4.27;;;33.80;1.00;;;;;;5049393;28;20485;-66
2023/10/14 08:47:50;;;;;;;8.17;5.10;;;33.90;1.00;;;;;;5047958;28;20462;-66
2023/10/14 08:50:19;;;;;;;11.80;4.77;;;33.40;1.00;;;;;;5045148;28;20461;-66
2023/10/14 08:52:47;;;;;;;7.90;4.53;;;32.30;1.00;;;;;;5048610;28;20454;-66
2023/10/14 08:55:16;;;;;;;9.30;5.10;;;31.00;1.00;;;;;;5039287;28;20486;-66
2023/10/14 08:57:44;;;;;;;10.40;4.10;;;29.70;1.00;;;;;;5044566;28;20458;-64
2023/10/14 09:00:13;;;;;;;8.90;4.60;;;28.70;1.00;;;;;;5043429;28;20462;-64
2023/10/14 09:02:41;;;;;;;8.60;4.77;;;27.90;1.00;;;;;;5044434;28;20803;-65
2023/10/14 09:05:11;;;;;;;10.33;4.80;;;27.30;1.00;;;;;;5042691;28;20481;-65
2023/10/14 09:07:39;;;;;;;7.10;4.50;;;26.80;1.00;;;;;;5044644;28;21034;-65
2023/10/14 09:10:07;;;;;;;12.97;4.77;;;26.30;1.00;;;;;;5043485;28;20458;-64
2023/10/14 09:12:35;;;;;;;11.43;5.90;;;26.40;1.00;;;;;;5040302;28;20457;-64
2023/10/14 09:15:02;;;;;;;9.07;4.50;;;28.40;1.00;;;;;;5045760;28;20478;-64
2023/10/14 09:17:30;;;;;;;9.20;4.40;;;30.70;1.00;;;;;;5045541;28;20484;-65
2023/10/14 09:19:57;;;;;;;12.33;4.70;;;32.20;1.00;;;;;;5046288;28;20470;-64
2023/10/14 09:22:25;;;;;;;8.17;4.40;;;33.80;1.00;;;;;;5045243;28;20547;-64
2023/10/14 09:24:52;;;;;;;8.73;4.57;;;35.10;1.00;;;;;;5044699;28;20481;-64
2023/10/14 09:27:20;;;;;;;8.43;4.50;;;34.80;1.00;;;;;;5046020;28;20463;-65
2023/10/14 09:29:49;;;;;;;9.60;5.03;;;33.40;1.00;;;;;;5039362;28;20494;-65
2023/10/14 09:32:17;;;;;;;12.07;4.80;;;32.00;1.00;;;;;;5045625;28;20473;-67
2023/10/14 09:34:44;;;;;;;9.17;4.90;;;31.00;1.00;;;;;;5044960;28;20482;-67
2023/10/14 09:37:17;;;;;;;9.60;4.90;;;30.20;1.00;;;;;;5043517;28;20489;-67
2023/10/14 09:39:48;;;;;;;9.50;4.43;;;29.60;1.00;;;;;;5040484;28;20466;-67
2023/10/14 09:42:16;;;;;;;8.70;6.20;;;29.00;1.00;;;;;;5045154;28;20485;-65
2023/10/14 09:44:43;;;;;;;9.80;5.20;;;28.50;1.00;;;;;;5041600;28;20535;-68
2023/10/14 09:47:14;;;;;;;10.47;6.67;;;28.00;1.00;;;;;;5040613;28;20923;-67
2023/10/14 09:49:42;;;;;;;10.83;6.40;;;27.60;1.00;;;;;;5044167;28;20583;-67
2023/10/14 09:52:14;;;;;;;9.47;5.73;;;27.20;1.00;;;;;;5046752;28;20480;-67
2023/10/14 09:54:42;;;;;;;8.57;4.57;;;26.90;1.00;;;;;;5045461;28;20483;-67
2023/10/14 09:57:11;;;;;;;8.50;5.13;;;26.60;1.00;;;;;;5042050;28;20856;-66
2023/10/14 09:59:41;;;;;;;11.90;5.27;;;26.30;1.00;;;;;;5044577;28;20489;-65
2023/10/14 10:02:09;;;;;;;9.83;5.80;;;25.80;1.00;;;;;;5042625;28;20466;-65
2023/10/14 10:04:45;;;;;;;10.77;5.60;;;25.50;1.00;;;;;;5038251;28;20543;-65
2023/10/14 10:07:20;;;;;;;9.77;5.33;;;25.20;1.00;;;;;;5044330;28;20828;-67
2023/10/14 10:10:11;;;;;;;8.27;4.80;;;24.80;1.00;;;;;;5039724;28;20996;-66
2023/10/14 10:12:41;;;;;;;9.67;5.20;;;24.50;1.00;;;;;;5030738;28;20498;-65
2023/10/14 10:15:09;;;;;;;10.13;4.73;;;24.50;1.10;;;;;;5035583;28;20624;-63
2023/10/14 10:17:37;;;;;;;8.13;4.20;;;25.10;1.00;;;;;;5041061;28;20486;-64
2023/10/14 10:20:11;;;;;;;8.30;4.17;;;26.20;1.00;;;;;;5044682;28;21201;-63
2023/10/14 10:22:41;;;;;;;11.57;3.90;;;26.50;1.00;;;;;;5040955;28;21207;-63
2023/10/14 10:25:09;;;;;;;7.70;3.33;;;27.20;1.00;;;;;;5039811;28;20489;-64
2023/10/14 10:27:36;;;;;;;5.53;2.90;;;26.80;1.00;;;;;;5043037;28;21046;-63
2023/10/14 10:30:07;;;;;;;10.00;3.57;;;26.40;1.00;;;;;;5046179;28;20528;-64
2023/10/14 10:32:34;;;;;;;10.03;3.57;;;26.00;1.00;;;;;;5045478;28;20482;-63
2023/10/14 10:35:13;;;;;;;7.97;4.00;;;25.50;1.00;;;;;;5034390;28;20506;-64
2023/10/14 10:37:47;;;;;;;10.23;3.80;;;25.00;1.00;;;;;;5041996;28;20497;-64
2023/10/14 10:40:17;;;;;;;7.67;3.30;;;24.60;1.40;;;;;;5039441;28;20947;-64
2023/10/14 10:42:48;;;;;;;8.70;3.30;;;24.20;2.60;;;;;;5040849;28;20876;-64
2023/10/14 10:45:21;;;;;;;8.13;3.50;;;23.70;3.60;;;;;;5043647;28;20477;-63
2023/10/14 10:47:54;;;;;;;5.60;3.00;;;23.30;5.00;;;;;;5045827;28;20458;-65
2023/10/14 10:50:23;;;;;;;6.87;3.60;;;23.00;6.30;;;;;;5042612;28;20509;-64
2023/10/14 10:52:55;;;;;;;8.23;4.00;;;22.80;7.50;;;;;;5044585;28;20457;-63
2023/10/14 10:55:24;;;;;;;7.00;3.23;;;22.70;8.50;;;;;;5044562;28;20524;-63
2023/10/14 10:58:01;;;;;;;8.53;3.37;;;22.70;8.40;;;;;;5040913;28;20482;-64
2023/10/14 11:00:30;;;;;;;8.43;3.53;;;22.60;8.50;;;;;;5041978;28;21165;-64
2023/10/14 11:02:57;;;;;;;9.10;3.40;;;22.60;9.20;;;;;;5042637;28;20498;-64
2023/10/14 11:05:25;;;;;;;10.20;4.33;;;22.40;9.70;;;;;;5045985;28;20481;-64
2023/10/14 11:07:53;;;;;;;10.33;4.70;;;22.30;9.60;;;;;;5043152;28;20485;-64
2023/10/14 11:10:23;;;;;;;11.20;4.10;;;22.20;10.40;;;;;;5040485;28;20473;-64
2023/10/14 11:12:50;;;;;;;7.63;4.60;;;22.10;10.90;;;;;;5041194;28;20520;-64
2023/10/14 11:15:20;;;;;;;10.03;4.90;;;22.10;11.10;;;;;;5043604;28;20478;-64
2023/10/14 11:17:52;;;;;;;7.60;4.40;;;22.00;11.50;;;;;;5044378;28;20478;-63
2023/10/14 11:20:19;;;;;;;9.53;5.20;;;21.90;11.60;;;;;;5044001;28;20860;-63
2023/10/14 11:22:47;;;;;;;7.60;4.13;;;21.90;12.10;;;;;;5040026;28;20506;-67
2023/10/14 11:25:18;;;;;;;9.03;5.70;;;21.90;12.10;;;;;;5031681;23;20491;-65
2023/10/14 11:27:45;;;;;;;7.57;4.53;;;21.80;12.10;;;;;;5021916;28;20547;-65
2023/10/14 11:30:13;;;;;;;13.33;4.97;;;21.80;12.50;;;;;;5022153;28;20489;-65
2023/10/14 11:32:46;;;;;;;9.70;4.60;;;21.80;12.70;;;;;;5005163;28;20472;-68
2023/10/14 11:35:17;;;;;;;7.43;4.50;;;21.80;13.00;;;;;;5005426;28;20490;-64
2023/10/14 11:37:44;;;;;;;7.10;3.83;;;21.80;12.30;;;;;;5003872;28;20481;-65
2023/10/14 11:40:14;;;;;;;6.83;4.00;;;21.70;12.80;;;;;;5005694;28;20475;-66
2023/10/14 11:42:41;;;;;;;9.83;5.23;;;21.60;12.70;;;;;;5003133;28;21020;-66
2023/10/14 11:45:08;;;;;;;9.83;5.37;;;21.60;13.10;;;;;;5003529;28;20498;-66
2023/10/14 11:47:39;;;;;;;12.00;5.03;;;21.60;13.50;;;;;;5005368;28;20468;-66
2023/10/14 11:50:11;;;;;;;9.17;3.97;;;21.60;13.70;;;;;;5001322;28;20470;-67
2023/10/14 11:52:39;;;;;;;7.90;4.00;;;21.60;13.50;;;;;;4996333;28;20475;-66
2023/10/14 11:55:11;;;;;;;8.17;3.77;;;21.60;13.70;;;;;;5008526;28;20487;-66
2023/10/14 11:57:41;;;;;;;7.30;3.70;;;21.90;13.10;;;;;;5008618;28;20488;-66
2023/10/14 12:00:10;;;;;;;6.03;3.63;;;21.80;12.40;;;;;;5006943;28;20498;-66
2023/10/14 12:02:37;;;;;;;6.30;3.10;;;21.90;12.50;;;;;;5009302;28;20480;-66
2023/10/14 12:05:05;;;;;;;4.60;2.40;;;21.90;11.40;;;;;;5007249;28;20491;-66
2023/10/14 12:07:32;;;;;;;4.73;2.97;;;21.90;11.20;;;;;;5007024;28;20542;-66
2023/10/14 12:09:59;;;;;;;9.73;3.87;;;21.80;11.40;;;;;;5007681;28;20522;-66
2023/10/14 12:12:26;;;;;;;6.83;2.63;;;21.70;11.80;;;;;;5011132;28;20941;-66
2023/10/14 12:14:54;;;;;;;6.43;3.13;;;21.60;12.00;;;;;;5008354;28;20523;-66
2023/10/14 12:17:23;;;;;;;6.13;2.07;;;21.60;11.80;;;;;;5000163;28;20484;-66
2023/10/14 12:19:50;;;;;;;4.33;0.70;;;21.60;11.00;;;;;;5009214;28;20462;-66
2023/10/14 12:22:17;;;;;;;3.13;0.50;;;21.50;8.30;;;;;;5007040;28;20467;-66
2023/10/14 12:24:44;;;;;;;3.97;1.20;;;21.20;8.20;;;;;;5012442;28;20491;-66
2023/10/14 12:27:14;;;;;;;4.07;1.37;;;21.00;8.90;;;;;;5016202;28;20463;-66
2023/10/14 12:29:41;;;;;;;3.30;0.87;;;20.80;9.00;;;;;;5010725;28;20486;-66
2023/10/14 12:32:12;;;;;;;5.03;1.20;;;20.60;9.20;;;;;;5016979;23;20492;-66
2023/10/14 12:34:43;;;;;;;4.13;0.90;;;20.50;9.10;;;;;;4988493;28;20997;-66
2023/10/14 12:37:17;;;;;;;9.83;2.63;;;20.40;9.40;;;;;;4992222;28;20820;-66
2023/10/14 12:39:48;;;;;;;6.60;1.60;;;20.20;10.30;;;;;;4989758;28;20467;-66
2023/10/14 12:42:17;;;;;;;10.30;2.10;;;20.00;11.40;;;;;;4987242;28;20477;-66
2023/10/14 12:44:43;;;;;;;10.13;2.30;;;19.80;12.40;;;;;;4993505;28;20495;-66
2023/10/14 12:47:12;;;;;;;5.43;1.37;;;19.70;12.70;;;;;;4988163;28;20468;-66
2023/10/14 12:49:40;;;;;;;7.33;1.23;;;19.50;13.20;;;;;;4995088;28;20477;-66
2023/10/14 12:52:12;;;;;;;6.63;1.20;;;19.40;13.50;;;;;;4990623;28;20465;-66
2023/10/14 12:54:39;;;;;;;4.10;1.00;;;19.30;14.20;;;;;;4993526;28;20507;-66
2023/10/14 12:57:08;;;;;;;4.53;1.13;;;19.30;14.70;;;;;;4984768;28;21118;-66
2023/10/14 12:59:39;;;;;;;4.03;1.00;;;19.30;14.90;;;;;;4990975;28;20472;-66
2023/10/14 13:02:08;;;;;;;5.67;1.37;;;19.30;15.00;;;;;;5014238;28;20477;-66
2023/10/14 13:04:38;;;;;;;3.90;0.90;;;19.30;15.30;;;;;;5020610;28;20551;-66
2023/10/14 13:07:08;;;;;;;3.30;0.90;;;19.30;15.60;;;;;;5018568;28;20924;-67